Portada
METAR-TAF:

METAR-TAF

Aeroports :

Irkutsk, Rússia

latitud: 52-16N, longitud: 104-19E, altitud: 513 m

Observació

L'informe es va fer fa 12 minuts, a les 16:00 UTC
Vent 2 kt del Est/Sud-Est
Temperatura 18°C
Humitat 94%
Pressió 1009 hPa
Visibilitat 10 km o més
sense núvols per sota de 1500 mi sense presència de cumulonimbus.

METAR: UIII 161600Z 11001MPS CAVOK 18/17 Q1009 R12/CLRD60 NOSIG RMK QFE714/0952

Hora: 00:12 (16:12 UTC)

Pronòstic

L'informe es va fer fa 2 hores i 12 minuts, a les 14:00 UTC
Pronòstic vàlid del 16 a les 15 UTC al 17 a les 15 UTC
Vent 2 kt amb direcció variable
Visibilitat 10 km o més
Núvols disperses a una alçada de 4000 ft, Cumulonimbus.
Temporalment
l' 16 a les 18 UTC al 17 a les 01 UTC
Visibilitat: 0500 m
a una alçada de 100 ft
boira,

TAF: UIII 161400Z 1615/1715 VRB01MPS 9999 SCT040CB TEMPO 1618/1701 0500 FG VV001

Observacions i pronòstics meteorològics de més de 4000 aeroports (METAR i TAF).

Les estacions disponibles són els punts grocs i vermells al mapa.

Posi el ratolí al punt desitjat per veure el nom de l'estació.

Feu clic per veure les observacions i els pronòstics meteorològics.

Per canviar el mapa: feu clic els botons verds amb una creu de color negre per apropar; al botó verd amb un guió per allunyar la imatge; o en les fletxes verdes per a mapes adjacents.


METAR-TAF: